Etusivu
METAR-TAF:

METAR-TAF

Lentoasemat :

Colonel James Jabara Airport

Wichita, Kansas, Yhdysvallat

Leveyspiiri: 37-44-59N, Pituuspiiri: 097-13-08W, korkeus merenpinnasta: 432 m

Tämänhetkinen sää

Tämä raportti tehtiin 32 minuuttia sitten, kello 00.54 UTC
Tuuli 12 kn etelästä/kaakosta puuskistuen 20 kn:hen
Lämpötila 31°C
Kosteus 55%
Ilmanpaine 1007 hPa
Näkyvyys: 16.1 km
selkeää

METAR: KAAO 170054Z AUTO 15012G20KT 10SM CLR 31/21 A2975 RMK AO2 PK WND 16026/0002 SLP058 T03060211

Aika: 20:26 (01:26 UTC)


TAF: puuttuu

Säähavainnot ja -ennusteet yli 4000 lentoasemalta (METAR- ja TAF-raportit).

Käytössä olevat sääasemat on merkitty karttaan keltaisilla ja punaisilla pisteillä.

Aseta hiiri pisteen päälle nähdäksesi sääaseman nimen.

Klikkaa sitten nähdäksesi säähavainnot ja -ennusteet.

Kartan vaihtaminen: klikkaa mustalla rastilla varustettuja vihreitä pisteitä, niin voit zoomata sisään; viivalla varustettua vihreää pistettä, niin voit zoomata ulos tai vihreitä nuolia, niin pääset viereisille kartoille.


METAR-TAF: